createdAt,value
2022-09-09T00:01:44.500Z,25.60
2022-09-09T00:04:40.897Z,25.70
2022-09-09T00:07:07.824Z,25.60
2022-09-09T00:09:46.104Z,25.40
2022-09-09T00:12:51.538Z,25.30
2022-09-09T00:15:31.931Z,25.30
2022-09-09T00:18:30.504Z,25.60
2022-09-09T00:21:13.927Z,25.70
2022-09-09T00:23:45.441Z,25.50
2022-09-09T00:26:22.357Z,25.70
2022-09-09T00:29:05.924Z,25.50
2022-09-09T00:31:33.507Z,25.50
2022-09-09T00:34:19.109Z,25.40
2022-09-09T00:36:48.699Z,25.30
2022-09-09T00:39:45.669Z,25.30
2022-09-09T00:42:21.135Z,25.50
2022-09-09T00:45:12.126Z,25.40
2022-09-09T00:47:43.395Z,25.20
2022-09-09T00:50:50.192Z,25.60
2022-09-09T00:53:39.854Z,25.50
2022-09-09T00:56:06.586Z,25.60
2022-09-09T00:58:33.550Z,25.50
2022-09-09T01:01:12.432Z,25.60
2022-09-09T01:03:54.835Z,25.60
2022-09-09T01:06:27.455Z,25.40
2022-09-09T01:09:23.677Z,25.20
2022-09-09T01:12:16.445Z,25.20
2022-09-09T01:14:53.154Z,25.30
2022-09-09T01:17:44.276Z,25.50
2022-09-09T01:20:29.764Z,25.40
2022-09-09T01:23:21.383Z,25.40
2022-09-09T01:26:25.221Z,25.60
2022-09-09T01:28:54.928Z,25.40
2022-09-09T01:31:43.385Z,25.40
2022-09-09T01:34:15.947Z,25.50
2022-09-09T01:37:03.573Z,25.30
2022-09-09T01:39:30.366Z,25.40
2022-09-09T01:41:57.827Z,25.20
2022-09-09T01:44:27.603Z,25.10
2022-09-09T01:46:54.693Z,25.10
2022-09-09T01:49:21.890Z,25.10
2022-09-09T01:51:52.741Z,25.40
2022-09-09T01:54:25.475Z,25.50
2022-09-09T01:57:13.242Z,25.50
2022-09-09T02:00:01.960Z,25.50
2022-09-09T02:02:56.948Z,25.40
2022-09-09T02:05:29.974Z,25.40
2022-09-09T02:08:21.917Z,25.40
2022-09-09T02:11:09.719Z,25.50
2022-09-09T02:13:45.190Z,25.40
2022-09-09T02:16:28.785Z,25.20
2022-09-09T02:19:13.919Z,25.10
2022-09-09T02:21:44.325Z,25.10
2022-09-09T02:24:15.712Z,25.30
2022-09-09T02:26:44.905Z,25.30
2022-09-09T02:29:32.390Z,25.10
2022-09-09T02:32:04.309Z,25.20
2022-09-09T02:34:32.760Z,25.10
2022-09-09T02:37:01.549Z,25.20
2022-09-09T02:39:28.301Z,25.20
2022-09-09T02:41:55.061Z,25.40
2022-09-09T02:44:21.833Z,25.30
2022-09-09T02:46:48.901Z,25.30
2022-09-09T02:49:30.697Z,25.20
2022-09-09T02:52:09.761Z,25.20
2022-09-09T02:54:40.461Z,25.10
2022-09-09T02:57:28.805Z,25.10
2022-09-09T02:59:59.543Z,25.00
2022-09-09T03:02:26.535Z,25.00
2022-09-09T03:04:53.578Z,25.00
2022-09-09T03:07:21.015Z,25.10
2022-09-09T03:09:47.977Z,25.20
2022-09-09T03:12:14.745Z,25.20
2022-09-09T03:14:41.829Z,25.10
2022-09-09T03:17:10.780Z,25.20
2022-09-09T03:19:38.541Z,25.30
2022-09-09T03:22:05.505Z,25.20
2022-09-09T03:24:32.258Z,25.10
2022-09-09T03:26:59.123Z,25.00
2022-09-09T03:29:25.943Z,25.10
2022-09-09T03:31:52.980Z,25.20
2022-09-09T03:34:20.050Z,25.20
2022-09-09T03:36:47.543Z,25.20
2022-09-09T03:39:15.597Z,25.20
2022-09-09T03:41:42.283Z,25.20
2022-09-09T03:44:09.017Z,25.20
2022-09-09T03:46:35.866Z,25.20
2022-09-09T03:49:03.300Z,25.20
2022-09-09T03:51:30.061Z,25.20
2022-09-09T03:53:59.121Z,25.30
2022-09-09T03:56:25.957Z,25.20
2022-09-09T03:58:52.654Z,25.10
2022-09-09T04:01:19.403Z,25.00
2022-09-09T04:03:46.425Z,24.90
2022-09-09T04:06:15.543Z,24.90
2022-09-09T04:08:42.875Z,24.90
2022-09-09T04:11:10.665Z,25.00
2022-09-09T04:13:40.113Z,24.90
2022-09-09T04:16:07.715Z,24.90
2022-09-09T04:18:37.455Z,25.00
2022-09-09T04:21:05.568Z,25.10
2022-09-09T04:23:32.470Z,25.00
2022-09-09T04:26:00.590Z,25.00
2022-09-09T04:28:30.605Z,25.00
2022-09-09T04:30:58.137Z,25.10
2022-09-09T04:33:27.467Z,25.00
2022-09-09T04:35:56.240Z,25.20
2022-09-09T04:38:25.232Z,25.10
2022-09-09T04:40:53.285Z,25.00
2022-09-09T04:43:20.436Z,25.10
2022-09-09T04:45:52.396Z,25.00
2022-09-09T04:48:21.124Z,25.00
2022-09-09T04:51:05.836Z,25.10
2022-09-09T04:53:35.114Z,25.20
2022-09-09T04:56:07.810Z,25.10
2022-09-09T04:58:35.020Z,25.20
2022-09-09T05:01:10.148Z,25.10
2022-09-09T05:03:37.822Z,25.20
2022-09-09T05:06:10.586Z,25.20
2022-09-09T05:08:38.681Z,25.10
2022-09-09T05:11:33.160Z,25.00
2022-09-09T05:14:00.095Z,25.00
2022-09-09T05:16:27.659Z,25.00
2022-09-09T05:18:55.031Z,24.90
2022-09-09T05:21:24.299Z,24.70
2022-09-09T05:23:52.390Z,24.80
2022-09-09T05:26:21.449Z,24.90
2022-09-09T05:28:48.211Z,24.80
2022-09-09T05:31:17.496Z,24.90
2022-09-09T05:33:47.029Z,24.90
2022-09-09T05:36:16.809Z,25.00
2022-09-09T05:38:46.359Z,25.00
2022-09-09T05:41:14.037Z,25.00
2022-09-09T05:43:40.745Z,24.80
2022-09-09T05:46:12.912Z,24.70
2022-09-09T05:48:44.910Z,24.80
2022-09-09T05:51:18.536Z,24.70
2022-09-09T05:53:46.760Z,24.70
2022-09-09T05:56:16.857Z,24.70
2022-09-09T05:58:47.997Z,24.80
2022-09-09T06:01:15.933Z,24.80
2022-09-09T06:03:44.840Z,24.80
2022-09-09T06:06:15.205Z,24.90
2022-09-09T06:08:46.941Z,24.80
2022-09-09T06:11:17.443Z,24.80
2022-09-09T06:13:44.421Z,24.80
2022-09-09T06:16:18.410Z,24.80
2022-09-09T06:18:45.275Z,24.80
2022-09-09T06:21:20.520Z,24.70
2022-09-09T06:23:48.683Z,24.70
2022-09-09T06:26:26.505Z,24.60
2022-09-09T06:28:55.216Z,24.60
2022-09-09T06:31:29.323Z,24.90
2022-09-09T06:33:57.347Z,24.90
2022-09-09T06:36:26.525Z,24.80
2022-09-09T06:38:54.023Z,24.90
2022-09-09T06:41:22.463Z,25.00
2022-09-09T06:43:50.061Z,24.90
2022-09-09T06:46:25.034Z,24.90
2022-09-09T06:48:51.855Z,24.80
2022-09-09T06:51:23.205Z,24.90
2022-09-09T06:53:55.457Z,25.00
2022-09-09T06:56:41.496Z,25.10
2022-09-09T06:59:09.542Z,25.10
2022-09-09T07:01:39.191Z,25.20
2022-09-09T07:04:08.717Z,25.30
2022-09-09T07:06:38.324Z,25.20
2022-09-09T07:09:10.746Z,25.40
2022-09-09T07:11:45.439Z,25.30
2022-09-09T07:14:14.875Z,25.40
2022-09-09T07:16:43.148Z,25.30
2022-09-09T07:19:10.312Z,25.30
2022-09-09T07:21:37.782Z,25.20
2022-09-09T07:24:08.379Z,25.30
2022-09-09T07:26:36.232Z,25.20
2022-09-09T07:29:03.657Z,25.30
2022-09-09T07:31:33.020Z,25.30
2022-09-09T07:34:01.051Z,25.20
2022-09-09T07:36:34.419Z,25.20
2022-09-09T07:39:04.208Z,25.30
2022-09-09T07:41:42.874Z,25.20
2022-09-09T07:44:17.545Z,25.30
2022-09-09T07:46:46.393Z,25.20
2022-09-09T07:49:13.510Z,25.20
2022-09-09T07:51:45.444Z,25.30
2022-09-09T07:54:15.782Z,25.40
2022-09-09T07:56:43.543Z,25.30
2022-09-09T07:59:11.661Z,25.40
2022-09-09T08:01:44.608Z,25.40
2022-09-09T08:04:17.588Z,25.50
2022-09-09T08:06:59.382Z,25.50
2022-09-09T08:09:29.830Z,25.50
2022-09-09T08:11:59.401Z,25.50
2022-09-09T08:14:26.396Z,25.70
2022-09-09T08:16:55.408Z,25.70
2022-09-09T08:19:22.380Z,25.70
2022-09-09T08:21:50.263Z,25.70
2022-09-09T08:24:17.436Z,25.70
2022-09-09T08:26:50.194Z,25.80
2022-09-09T08:29:17.881Z,25.90
2022-09-09T08:31:48.060Z,25.90
2022-09-09T08:34:16.038Z,25.90
2022-09-09T08:36:45.633Z,26.00
2022-09-09T08:39:14.815Z,26.00
2022-09-09T08:41:53.240Z,26.00
2022-09-09T08:44:35.284Z,26.00
2022-09-09T08:47:33.091Z,26.10
2022-09-09T08:50:22.897Z,26.10
2022-09-09T08:53:09.619Z,26.10
2022-09-09T08:55:59.840Z,26.20
2022-09-09T08:58:28.424Z,26.30
2022-09-09T09:01:14.200Z,26.20
2022-09-09T09:03:59.274Z,26.20
2022-09-09T09:06:31.751Z,26.10
2022-09-09T09:09:07.508Z,26.10
2022-09-09T09:11:40.257Z,26.10
2022-09-09T09:14:20.127Z,26.20
2022-09-09T09:17:05.560Z,26.20
2022-09-09T09:19:36.147Z,26.20
2022-09-09T09:22:16.296Z,26.00
2022-09-09T09:24:48.941Z,26.00
2022-09-09T09:27:22.821Z,26.00
2022-09-09T09:30:18.456Z,26.00
2022-09-09T09:32:42.228Z,26.00
2022-09-09T09:35:13.735Z,26.00
2022-09-09T09:40:28.706Z,26.10
2022-09-09T09:43:02.935Z,26.20
2022-09-09T09:45:55.316Z,26.30
2022-09-09T09:48:32.062Z,26.30
2022-09-09T09:51:09.358Z,26.20
2022-09-09T09:53:39.476Z,26.20
2022-09-09T09:56:11.494Z,26.20
2022-09-09T09:58:47.471Z,26.30
2022-09-09T10:01:29.269Z,26.30
2022-09-09T10:04:01.244Z,26.20
2022-09-09T10:06:36.782Z,26.30
2022-09-09T10:09:05.503Z,26.20
2022-09-09T10:11:46.540Z,26.20
2022-09-09T10:14:29.022Z,26.20
2022-09-09T10:16:56.359Z,26.20
2022-09-09T10:19:35.358Z,26.20
2022-09-09T10:22:23.524Z,26.20
2022-09-09T10:25:13.559Z,26.20
2022-09-09T10:27:59.742Z,26.20
2022-09-09T10:30:57.717Z,26.10
2022-09-09T10:33:49.120Z,26.10
2022-09-09T10:36:27.020Z,26.10
2022-09-09T10:39:00.750Z,26.00
2022-09-09T10:41:44.687Z,26.00
2022-09-09T10:44:35.876Z,26.10
2022-09-09T10:47:08.762Z,26.10
2022-09-09T10:50:16.746Z,26.00
2022-09-09T10:53:19.408Z,26.00
2022-09-09T10:55:54.437Z,26.00
2022-09-09T10:58:47.663Z,26.00
2022-09-09T11:01:25.338Z,26.00
2022-09-09T11:04:02.587Z,26.00
2022-09-09T11:06:38.572Z,26.00
2022-09-09T11:09:06.969Z,26.00
2022-09-09T11:11:57.254Z,26.00
2022-09-09T11:14:29.618Z,26.00
2022-09-09T11:17:02.094Z,25.90
2022-09-09T11:19:41.702Z,26.00
2022-09-09T11:22:27.277Z,25.90
2022-09-09T11:25:02.320Z,25.90
2022-09-09T11:27:32.955Z,26.00
2022-09-09T11:29:59.774Z,26.00
2022-09-09T11:33:05.333Z,26.00
2022-09-09T11:35:53.946Z,26.00
2022-09-09T11:38:43.913Z,26.00
2022-09-09T11:41:11.394Z,26.00
2022-09-09T11:43:50.498Z,25.90
2022-09-09T11:46:20.686Z,25.90
2022-09-09T11:49:02.118Z,25.90
2022-09-09T11:51:31.843Z,25.90
2022-09-09T11:54:06.011Z,25.90
2022-09-09T11:56:47.527Z,25.90
2022-09-09T11:59:25.706Z,25.90
2022-09-09T12:02:17.051Z,25.90
2022-09-09T12:05:09.890Z,25.90
2022-09-09T12:07:39.364Z,25.90
2022-09-09T12:10:35.130Z,25.90
2022-09-09T12:13:16.983Z,25.80
2022-09-09T12:15:57.941Z,25.80
2022-09-09T12:18:33.282Z,25.80
2022-09-09T12:21:20.490Z,25.80
2022-09-09T12:23:58.139Z,25.80
2022-09-09T12:26:31.287Z,25.90
2022-09-09T12:29:16.464Z,25.90
2022-09-09T12:32:06.672Z,25.90
2022-09-09T12:34:44.613Z,25.90
2022-09-09T12:37:36.400Z,25.90
2022-09-09T12:40:20.742Z,25.90
2022-09-09T12:42:47.943Z,25.90
2022-09-09T12:45:22.946Z,25.90
2022-09-09T12:47:58.497Z,25.80
2022-09-09T12:50:27.271Z,25.90
2022-09-09T12:53:00.205Z,25.90
2022-09-09T12:55:31.894Z,25.80
2022-09-09T12:58:00.424Z,25.80
2022-09-09T13:00:27.876Z,25.80
2022-09-09T13:02:57.463Z,25.80
2022-09-09T13:05:27.024Z,25.80
2022-09-09T13:08:05.749Z,25.80
2022-09-09T13:10:52.947Z,25.80
2022-09-09T13:13:34.538Z,25.80
2022-09-09T13:16:03.442Z,25.80
2022-09-09T13:18:39.151Z,25.80
2022-09-09T13:21:06.183Z,25.80
2022-09-09T13:23:38.233Z,25.80
2022-09-09T13:26:25.647Z,25.70
2022-09-09T13:28:54.296Z,25.70
2022-09-09T13:31:33.772Z,25.80
2022-09-09T13:34:00.992Z,25.70
2022-09-09T13:36:32.778Z,25.70
2022-09-09T13:39:01.341Z,25.70
2022-09-09T13:41:45.135Z,25.70
2022-09-09T13:44:30.059Z,25.70
2022-09-09T13:47:10.920Z,25.70
2022-09-09T13:49:37.994Z,25.70
2022-09-09T13:52:12.962Z,25.70
2022-09-09T13:54:40.479Z,25.70
2022-09-09T13:57:26.388Z,25.80
2022-09-09T14:00:11.087Z,25.80
2022-09-09T14:02:39.689Z,25.80
2022-09-09T14:05:06.885Z,25.80
2022-09-09T14:07:33.847Z,25.80
2022-09-09T14:10:01.249Z,25.80
2022-09-09T14:12:28.377Z,25.80
2022-09-09T14:14:55.185Z,25.80
2022-09-09T14:17:23.251Z,25.80
2022-09-09T14:19:50.053Z,25.80
2022-09-09T14:22:16.857Z,25.80
2022-09-09T14:24:43.803Z,25.80
2022-09-09T14:27:11.365Z,25.80
2022-09-09T14:29:38.812Z,25.80
2022-09-09T14:32:10.632Z,25.80
2022-09-09T14:34:39.265Z,25.80
2022-09-09T14:37:06.146Z,25.80
2022-09-09T14:39:32.891Z,25.80
2022-09-09T14:42:00.342Z,25.70
2022-09-09T14:44:27.586Z,25.80
2022-09-09T14:46:55.335Z,25.80
2022-09-09T14:49:22.903Z,25.70
2022-09-09T14:51:50.015Z,25.70
2022-09-09T14:54:17.285Z,25.70
2022-09-09T14:56:44.140Z,25.70
2022-09-09T14:59:10.964Z,25.70
2022-09-09T15:01:38.973Z,25.70
2022-09-09T15:04:06.815Z,25.70
2022-09-09T15:06:37.427Z,25.70
2022-09-09T15:09:04.518Z,25.70
2022-09-09T15:11:35.561Z,25.70
2022-09-09T15:14:02.257Z,25.70
2022-09-09T15:16:30.196Z,25.70
2022-09-09T15:18:58.936Z,25.70
2022-09-09T15:21:28.555Z,25.80
2022-09-09T15:23:56.094Z,25.70
2022-09-09T15:26:23.538Z,25.70
2022-09-09T15:28:51.950Z,25.70
2022-09-09T15:31:24.729Z,25.70
2022-09-09T15:34:02.164Z,25.70
2022-09-09T15:36:37.309Z,25.70
2022-09-09T15:39:06.919Z,25.70
2022-09-09T15:41:33.956Z,25.80
2022-09-09T15:44:01.620Z,25.80
2022-09-09T15:46:42.690Z,25.80
2022-09-09T15:49:22.997Z,25.70
2022-09-09T15:52:04.370Z,25.70
2022-09-09T15:54:37.168Z,25.70
2022-09-09T15:57:05.961Z,25.70
2022-09-09T15:59:33.298Z,25.70
2022-09-09T16:02:01.202Z,25.70
2022-09-09T16:04:29.949Z,25.60
2022-09-09T16:07:02.393Z,25.70
2022-09-09T16:09:30.023Z,25.60
2022-09-09T16:11:59.880Z,25.60
2022-09-09T16:14:26.850Z,25.60
2022-09-09T16:16:54.102Z,25.60
2022-09-09T16:19:21.413Z,25.60
2022-09-09T16:21:52.312Z,25.70
2022-09-09T16:24:20.998Z,25.60
2022-09-09T16:26:50.573Z,25.70
2022-09-09T16:29:18.896Z,25.80
2022-09-09T16:31:48.034Z,25.70
2022-09-09T16:34:16.789Z,25.70
2022-09-09T16:36:44.761Z,25.60
2022-09-09T16:39:14.217Z,25.60
2022-09-09T16:41:44.822Z,25.50
2022-09-09T16:44:14.795Z,25.50
2022-09-09T16:46:48.098Z,25.50
2022-09-09T16:49:19.070Z,25.50
2022-09-09T16:51:55.345Z,25.70
2022-09-09T16:54:27.444Z,25.60
2022-09-09T16:57:04.093Z,25.70
2022-09-09T16:59:31.347Z,25.60
2022-09-09T17:01:58.369Z,25.60
2022-09-09T17:04:29.927Z,25.60
2022-09-09T17:06:58.870Z,25.70
2022-09-09T17:09:30.088Z,25.70
2022-09-09T17:11:57.758Z,25.70
2022-09-09T17:14:24.880Z,25.70
2022-09-09T17:16:51.949Z,25.60
2022-09-09T17:19:19.527Z,25.50
2022-09-09T17:22:16.668Z,25.60
2022-09-09T17:24:39.440Z,25.60
2022-09-09T17:27:06.377Z,25.70
2022-09-09T17:29:33.329Z,25.60
2022-09-09T17:32:00.258Z,25.60
2022-09-09T17:34:28.653Z,25.60
2022-09-09T17:36:55.541Z,25.60
2022-09-09T17:39:22.867Z,25.70
2022-09-09T17:41:50.143Z,25.60
2022-09-09T17:44:16.947Z,25.50
2022-09-09T17:46:44.244Z,25.50
2022-09-09T17:49:18.072Z,25.60
2022-09-09T17:51:45.956Z,25.60
2022-09-09T17:54:15.892Z,25.60
2022-09-09T17:56:43.474Z,25.60
2022-09-09T17:59:13.349Z,25.50
2022-09-09T18:01:42.635Z,25.50
2022-09-09T18:04:14.399Z,25.50
2022-09-09T18:06:46.866Z,25.50
2022-09-09T18:09:17.277Z,25.40
2022-09-09T18:11:47.274Z,25.40
2022-09-09T18:14:17.813Z,25.40
2022-09-09T18:16:45.325Z,25.50
2022-09-09T18:19:13.876Z,25.70
2022-09-09T18:21:42.216Z,25.60
2022-09-09T18:24:12.549Z,25.50
2022-09-09T18:26:47.310Z,25.40
2022-09-09T18:29:20.574Z,25.40
2022-09-09T18:31:48.684Z,25.50
2022-09-09T18:34:20.953Z,25.50
2022-09-09T18:36:56.280Z,25.40
2022-09-09T18:39:28.960Z,25.50
2022-09-09T18:42:04.047Z,25.40
2022-09-09T18:44:33.334Z,25.50
2022-09-09T18:47:00.723Z,25.50
2022-09-09T18:49:27.793Z,25.50
2022-09-09T18:51:54.584Z,25.50
2022-09-09T18:54:25.029Z,25.50
2022-09-09T18:56:53.041Z,25.40
2022-09-09T18:59:22.413Z,25.30
2022-09-09T19:01:50.863Z,25.40
2022-09-09T19:04:19.137Z,25.30
2022-09-09T19:06:48.127Z,25.40
2022-09-09T19:09:17.957Z,25.40
2022-09-09T19:11:45.966Z,25.40
2022-09-09T19:14:15.795Z,25.40
2022-09-09T19:16:44.651Z,25.50
2022-09-09T19:19:24.532Z,25.40
2022-09-09T19:21:53.112Z,25.40
2022-09-09T19:24:25.615Z,25.60
2022-09-09T19:26:55.685Z,25.60
2022-09-09T19:29:26.514Z,25.50
2022-09-09T19:32:36.441Z,25.80
2022-09-09T19:34:44.946Z,25.60
2022-09-09T19:37:16.337Z,25.40
2022-09-09T19:39:46.070Z,25.40
2022-09-09T19:42:12.874Z,25.40
2022-09-09T19:44:39.783Z,25.50
2022-09-09T19:47:07.402Z,25.40
2022-09-09T19:49:35.204Z,25.40
2022-09-09T19:52:02.228Z,25.40
2022-09-09T19:54:29.056Z,25.40
2022-09-09T19:56:55.780Z,25.40
2022-09-09T19:59:22.741Z,25.40
2022-09-09T20:01:49.613Z,25.40
2022-09-09T20:04:17.728Z,25.40
2022-09-09T20:06:45.413Z,25.30
2022-09-09T20:09:18.479Z,25.40
2022-09-09T20:11:47.273Z,25.40
2022-09-09T20:14:15.266Z,25.40
2022-09-09T20:16:42.482Z,25.30
2022-09-09T20:19:12.604Z,25.30
2022-09-09T20:21:47.217Z,25.30
2022-09-09T20:24:18.346Z,25.30
2022-09-09T20:26:47.803Z,25.30
2022-09-09T20:29:18.074Z,25.40
2022-09-09T20:31:45.013Z,25.00
2022-09-09T20:34:21.770Z,24.80
2022-09-09T20:36:50.253Z,24.70
2022-09-09T20:39:19.966Z,24.80
2022-09-09T20:41:47.632Z,25.00
2022-09-09T20:44:17.952Z,25.00
2022-09-09T20:46:50.608Z,25.10
2022-09-09T20:49:19.596Z,25.20
2022-09-09T20:51:47.853Z,25.30
2022-09-09T20:54:20.827Z,25.20
2022-09-09T20:56:48.320Z,25.20
2022-09-09T20:59:18.683Z,25.20
2022-09-09T21:01:47.904Z,25.30
2022-09-09T21:04:18.015Z,25.20
2022-09-09T21:06:45.969Z,25.20
2022-09-09T21:09:14.109Z,25.20
2022-09-09T21:11:40.932Z,25.20
2022-09-09T21:14:08.308Z,25.20
2022-09-09T21:16:35.025Z,25.20
2022-09-09T21:19:01.869Z,25.20
2022-09-09T21:21:28.663Z,25.20
2022-09-09T21:23:57.512Z,25.20
2022-09-09T21:26:25.489Z,25.20
2022-09-09T21:28:55.918Z,25.20
2022-09-09T21:31:27.788Z,25.30
2022-09-09T21:33:56.982Z,25.30
2022-09-09T21:36:24.145Z,25.30
2022-09-09T21:38:53.196Z,25.20
2022-09-09T21:41:20.160Z,25.20
2022-09-09T21:43:52.227Z,25.20
2022-09-09T21:46:19.036Z,25.20
2022-09-09T21:48:46.112Z,25.20
2022-09-09T21:51:16.130Z,25.10
2022-09-09T21:53:43.487Z,25.10
2022-09-09T21:56:14.566Z,25.10
2022-09-09T21:58:42.534Z,25.10
2022-09-09T22:01:17.957Z,25.20
2022-09-09T22:03:46.017Z,25.10
2022-09-09T22:06:15.211Z,25.20
2022-09-09T22:08:43.377Z,25.10
2022-09-09T22:11:15.524Z,25.20
2022-09-09T22:13:45.897Z,25.10
2022-09-09T22:16:15.284Z,25.20
2022-09-09T22:18:42.105Z,25.10
2022-09-09T22:21:11.197Z,25.10
2022-09-09T22:23:38.414Z,25.00
2022-09-09T22:26:07.011Z,25.10
2022-09-09T22:28:34.747Z,25.20
2022-09-09T22:31:02.343Z,25.10
2022-09-09T22:33:29.608Z,25.10
2022-09-09T22:35:56.961Z,25.10
2022-09-09T22:38:24.473Z,25.00
2022-09-09T22:40:52.796Z,25.00
2022-09-09T22:43:23.228Z,25.00
2022-09-09T22:45:50.941Z,25.00
2022-09-09T22:48:18.443Z,25.00
2022-09-09T22:50:46.901Z,25.00
2022-09-09T22:53:15.396Z,25.00
2022-09-09T22:55:42.521Z,25.00
2022-09-09T22:58:10.326Z,25.00
2022-09-09T23:00:41.723Z,25.00
2022-09-09T23:03:08.665Z,25.00
2022-09-09T23:05:38.653Z,25.00
2022-09-09T23:08:05.670Z,25.00
2022-09-09T23:10:33.642Z,25.00
2022-09-09T23:13:00.501Z,25.00
2022-09-09T23:15:29.461Z,24.90
2022-09-09T23:17:56.511Z,24.90
2022-09-09T23:20:24.141Z,25.00
2022-09-09T23:22:51.163Z,25.00
2022-09-09T23:25:18.008Z,25.00
2022-09-09T23:27:45.564Z,25.00
2022-09-09T23:30:12.699Z,25.00
2022-09-09T23:32:39.760Z,25.00
2022-09-09T23:35:07.385Z,24.90
2022-09-09T23:37:36.987Z,24.90
2022-09-09T23:40:04.316Z,24.90
2022-09-09T23:42:33.321Z,25.00
2022-09-09T23:45:00.082Z,25.00
2022-09-09T23:47:28.089Z,25.00
2022-09-09T23:49:54.876Z,25.00
2022-09-09T23:52:22.046Z,25.00
2022-09-09T23:54:49.888Z,25.00
2022-09-09T23:57:16.550Z,25.00
2022-09-09T23:59:43.256Z,25.00
